메인 페이지
METAR-TAF:

METAR-TAF

공항 :

샤잘랄 국제공항

다카, 방글라데시

위도: 23-50-34N, 경도: 090-24-02E, 고도: 8m

현재 날씨관측

예보는 47분 전, 22:00시(UTC)에 발표되었습니다.
북동4kt
온도 26°C
습도 84%
기압 1006 hPa
시정: 3500m
고도 1200ft 상공 구름 보통
고도 10000ft 상공 구름 많음
연무

METAR: VGHS 282200Z 05004KT 3500 HZ SCT012 BKN100 26/23 Q1006 NOSIG

시각: 04:47 (22:47 UTC)

예보

예보는 5 시간 47분 전, 17:00시(UTC)에 발표되었습니다.
예보 대상 시간: 28일 18시부터 29일 24시까지 (UTC)
남남동8kt
시정: 3500m
고도 1500ft 상공 구름 보통
고도 10000ft 상공 구름 많음
연무
일시적
28일 18시부터 28일 24시까지 (UTC)
서북서25kt, 순간 최대 풍속 35kt
시정: 2000m
고도 800ft 상공 구름 많음
고도 2500ft 상공 구름 조금, 적란운.
고도 9000ft 상공 흐림
전환 중
29일 00시부터 29일 02시까지 (UTC)
동남동8kt
시정: 3500m
고도 1200ft 상공 구름 보통
고도 10000ft 상공 구름 많음
연무
일시적
29일 09시부터 29일 15시까지 (UTC)
서북서25kt, 순간 최대 풍속 35kt
시정: 2000m
고도 800ft 상공 구름 많음
고도 2500ft 상공 구름 조금, 적란운.
고도 9000ft 상공 흐림

TAF: VGHS 281700Z 2818/2924 15008KT 3500 HZ SCT015 BKN100 TEMPO 2818/2824 30025G35KT 2000 RA/TSRA BKN008 FEW025CB OVC090 BECMG 2900/2902 12008KT 3500 HZ SCT012 BKN100 TEMPO 2909/2915 29025G35KT 2000 RA/TSRA BKN008 FEW025CB OVC090

4,000개 이상의 공항 관측 자료 및 예보 (METAR 및 TAF 보고).

지도상에서 검색 가능한 기상관측소가 노란 점과 빨간 점으로 표시되어 있습니다.

기상관측소 명을 보려면 표시 위로 마우스를 이동하세요.

날씨 관측과 예보를 보려면 클릭하세요.

지도 변경 : 확대하려면 엑스 표시가 있는 녹색 버튼, 축소하려면 빼기 표시가 있는 녹색 버튼, 다음 페이지의 지도를 보려면 녹색 화살표를 클릭하세요.


METAR-TAF: